Time;durP1;ratioP1;P1;durP2;ratioP2;P2;SDS_P1;SDS_P2;PMS_P1;PMS_P2;Temp;Humidity;BMP_temperature;BMP_pressure;BME280_temperature;BME280_humidity;BME280_pressure;Samples;Min_cycle;Max_cycle;Signal;HPM_P1;HPM_P2
2023/04/30 00:01:25;;;;;;;66.32;40.88;;;;;;;9.08;97.27;101701.72;5033311;28;20053;-66
2023/04/30 00:03:50;;;;;;;65.25;38.33;;;;;;;9.03;97.24;101699.09;5030308;28;20147;-66
2023/04/30 00:06:16;;;;;;;61.42;38.95;;;;;;;8.99;97.54;101699.06;5023863;28;20077;-66
2023/04/30 00:08:41;;;;;;;67.85;40.13;;;;;;;8.96;97.55;101701.59;5027660;28;20057;-67
2023/04/30 00:11:06;;;;;;;63.72;38.95;;;;;;;8.93;97.84;101704.13;5033795;28;20033;-65
2023/04/30 00:13:32;;;;;;;65.28;38.97;;;;;;;8.91;98.29;101709.25;5035176;28;20087;-67
2023/04/30 00:15:57;;;;;;;52.60;35.08;;;;;;;8.88;97.64;101706.63;5036237;28;20029;-67
2023/04/30 00:18:22;;;;;;;58.00;36.47;;;;;;;8.84;97.81;101704.84;5038436;28;20127;-66
2023/04/30 00:20:50;;;;;;;57.55;34.47;;;;;;;8.80;98.54;101705.66;5035172;28;20032;-67
2023/04/30 00:23:16;;;;;;;68.80;39.25;;;;;;;8.77;98.54;101704.75;5033681;28;20043;-66
2023/04/30 00:25:41;;;;;;;57.03;32.88;;;;;;;8.72;98.22;101707.28;5034567;28;20041;-67
2023/04/30 00:28:06;;;;;;;67.07;37.10;;;;;;;8.69;98.22;101707.25;5035097;28;20142;-67
2023/04/30 00:30:32;;;;;;;59.55;36.28;;;;;;;8.66;98.75;101722.66;5039116;28;20045;-67
2023/04/30 00:32:57;;;;;;;52.42;33.65;;;;;;;8.64;98.68;101719.19;5037254;28;20036;-66
2023/04/30 00:35:22;;;;;;;50.17;31.67;;;;;;;8.62;98.58;101714.84;5039085;28;20043;-66
2023/04/30 00:37:48;;;;;;;54.47;34.22;;;;;;;8.60;98.65;101717.41;5037068;28;20071;-66
2023/04/30 00:40:13;;;;;;;55.17;33.95;;;;;;;8.56;98.20;101720.78;5036849;28;20136;-67
2023/04/30 00:42:39;;;;;;;49.50;31.88;;;;;;;8.54;98.15;101718.16;5036387;28;20439;-67
2023/04/30 00:45:05;;;;;;;49.83;32.60;;;;;;;8.47;98.31;101726.66;5037264;28;20037;-67
2023/04/30 00:47:30;;;;;;;53.47;31.10;;;;;;;8.43;98.37;101724.00;5032992;28;20037;-66
2023/04/30 00:49:57;;;;;;;47.67;30.13;;;;;;;8.40;98.75;101726.53;5034001;28;20086;-66
2023/04/30 00:52:22;;;;;;;49.58;30.90;;;;;;;8.37;98.31;101721.31;5032827;28;20748;-66
2023/04/30 00:54:49;;;;;;;48.72;32.25;;;;;;;8.32;98.65;101723.84;5034370;28;20037;-66
2023/04/30 00:57:14;;;;;;;115.30;31.08;;;;;;;8.23;98.99;101725.41;5036760;28;20602;-66
2023/04/30 00:59:40;;;;;;;37.45;24.10;;;;;;;8.08;99.54;101725.13;5036892;28;20189;-67
2023/04/30 01:02:06;;;;;;;38.30;25.33;;;;;;;7.99;100.00;101725.84;5034264;28;20154;-67
2023/04/30 01:04:32;;;;;;;37.28;25.27;;;;;;;7.93;100.00;101729.19;5053591;28;20049;-66
2023/04/30 01:07:01;;;;;;;31.95;22.33;;;;;;;7.85;100.00;101722.19;5038494;28;20525;-67
2023/04/30 01:09:27;;;;;;;32.00;20.43;;;;;;;7.80;100.00;101722.06;4997985;28;1108191;-66
2023/04/30 01:12:02;;;;;;;24.88;17.65;;;;;;;7.77;100.00;101726.31;5036510;28;20040;-67
2023/04/30 01:14:32;;;;;;;31.17;21.50;;;;;;;7.73;100.00;101724.53;5038876;28;20040;-66
2023/04/30 01:17:03;;;;;;;72.88;23.52;;;;;;;7.65;100.00;101731.25;5038186;28;20033;-67
2023/04/30 01:19:43;;;;;;;137.00;27.88;;;;;;;7.57;100.00;101720.78;5038030;28;20045;-66
2023/04/30 01:22:27;;;;;;;30.00;19.52;;;;;;;7.48;100.00;101727.50;5037060;28;20059;-67
2023/04/30 01:25:16;;;;;;;34.35;21.40;;;;;;;7.44;100.00;101727.44;5034755;28;20049;-66
2023/04/30 01:28:06;;;;;;;30.27;18.80;;;;;;;7.42;100.00;101733.34;5036687;28;20045;-67
2023/04/30 01:30:32;;;;;;;28.02;18.80;;;;;;;7.42;100.00;101728.22;5033770;28;20152;-67
2023/04/30 01:32:59;;;;;;;32.97;20.88;;;;;;;7.42;100.00;101723.06;5034303;28;20029;-67
2023/04/30 01:35:42;;;;;;;35.65;23.67;;;;;;;7.41;100.00;101729.06;5035631;28;20564;-66
2023/04/30 01:38:22;;;;;;;35.85;22.25;;;;;;;7.39;100.00;101725.56;5035047;28;20056;-67
2023/04/30 01:41:07;;;;;;;33.20;21.85;;;;;;;7.35;100.00;101726.38;5038586;28;20045;-67
2023/04/30 01:44:00;;;;;;;37.33;23.40;;;;;;;7.35;100.00;101723.81;5038422;28;20090;-67
2023/04/30 01:46:29;;;;;;;35.45;22.40;;;;;;;7.35;100.00;101721.22;5039469;28;20091;-67
2023/04/30 01:49:20;;;;;;;39.85;25.13;;;;;;;7.38;100.00;101719.59;5036993;28;20650;-67
2023/04/30 01:51:48;;;;;;;39.03;25.70;;;;;;;7.40;100.00;101722.19;5036186;28;20098;-68
2023/04/30 01:54:17;;;;;;;36.95;23.65;;;;;;;7.41;100.00;101718.78;5039597;28;20037;-66
2023/04/30 01:57:03;;;;;;;40.10;26.70;;;;;;;7.41;100.00;101723.94;5055333;28;20039;-67
2023/04/30 01:59:33;;;;;;;42.67;26.42;;;;;;;7.40;100.00;101722.19;5037380;28;20427;-67
2023/04/30 02:01:59;;;;;;;43.45;27.13;;;;;;;7.39;100.00;101720.44;5037671;28;20767;-66
2023/04/30 02:04:24;;;;;;;44.20;27.00;;;;;;;7.39;100.00;101723.88;5041189;28;20159;-67
2023/04/30 02:06:49;;;;;;;40.45;24.90;;;;;;;7.38;100.00;101719.59;5042313;28;20052;-67
2023/04/30 02:09:15;;;;;;;42.85;24.90;;;;;;;7.36;100.00;101722.94;5036938;28;20398;-67
2023/04/30 02:11:40;;;;;;;56.95;32.38;;;;;;;7.43;100.00;101737.66;5043349;28;20044;-67
2023/04/30 02:14:06;;;;;;;65.00;35.83;;;;;;;7.51;100.00;101736.09;5044577;28;20479;-66
2023/04/30 02:16:31;;;;;;;59.47;33.97;;;;;;;7.56;100.00;101733.63;5044179;28;20072;-67
2023/04/30 02:18:56;;;;;;;55.33;32.38;;;;;;;7.53;100.00;101737.03;5043725;28;20041;-66
2023/04/30 02:21:22;;;;;;;45.00;27.92;;;;;;;7.47;100.00;101733.47;5041598;28;20036;-67
2023/04/30 02:23:48;;;;;;;33.28;21.48;;;;;;;7.17;100.00;101734.59;5042558;28;20035;-68
2023/04/30 02:26:13;;;;;;;29.58;20.85;;;;;;;6.91;100.00;101738.28;5040721;28;20025;-66
2023/04/30 02:28:39;;;;;;;50.97;23.08;;;;;;;6.67;100.00;101735.16;5038058;28;20401;-66
2023/04/30 02:31:04;;;;;;;26.67;18.65;;;;;;;6.59;100.00;101741.78;5038806;28;20552;-66
2023/04/30 02:33:30;;;;;;;29.17;20.35;;;;;;;6.51;100.00;101745.88;5041248;28;20210;-66
2023/04/30 02:35:57;;;;;;;32.90;19.80;;;;;;;6.34;100.00;101745.50;5040214;28;20072;-66
2023/04/30 02:38:22;;;;;;;30.25;20.55;;;;;;;6.30;100.00;101744.56;5035168;28;20789;-67
2023/04/30 02:40:48;;;;;;;25.77;18.50;;;;;;;6.28;100.00;101745.34;5039399;28;20053;-66
2023/04/30 02:43:13;;;;;;;25.30;18.55;;;;;;;6.26;100.00;101747.84;5042436;28;20544;-66
2023/04/30 02:45:38;;;;;;;30.92;19.85;;;;;;;6.27;100.00;101753.88;5051073;28;20506;-67
2023/04/30 02:48:04;;;;;;;44.17;23.20;;;;;;;6.31;100.00;101754.00;5037277;28;20068;-67
2023/04/30 02:50:30;;;;;;;38.65;24.98;;;;;;;6.31;100.00;101754.00;5041788;28;20112;-67
2023/04/30 02:52:55;;;;;;;41.83;24.25;;;;;;;6.31;100.00;101755.69;5038009;28;20043;-66
2023/04/30 02:55:20;;;;;;;49.17;24.90;;;;;;;6.29;100.00;101753.06;5039240;28;20047;-67
2023/04/30 02:57:46;;;;;;;44.42;24.65;;;;;;;6.25;100.00;101753.84;5035739;28;20476;-67
2023/04/30 03:00:12;;;;;;;37.45;23.50;;;;;;;6.23;100.00;101752.03;5038110;28;20052;-67
2023/04/30 03:02:37;;;;;;;30.45;20.67;;;;;;;6.20;100.00;101746.88;5039347;28;20037;-67
2023/04/30 03:05:03;;;;;;;30.13;20.00;;;;;;;6.18;100.00;101754.50;5038940;28;20068;-67
2023/04/30 03:07:28;;;;;;;32.53;22.23;;;;;;;6.19;100.00;101751.13;5036357;28;20540;-67
2023/04/30 03:09:53;;;;;;;33.20;22.38;;;;;;;6.22;100.00;101753.78;5033504;28;20041;-67
2023/04/30 03:12:19;;;;;;;32.53;21.23;;;;;;;6.23;100.00;101758.06;5035252;28;20706;-67
2023/04/30 03:14:44;;;;;;;31.10;20.98;;;;;;;6.23;100.00;101752.03;5037384;28;20104;-67
2023/04/30 03:17:10;;;;;;;29.85;20.40;;;;;;;6.23;100.00;101755.50;5035900;28;20136;-67
2023/04/30 03:19:35;;;;;;;33.72;21.38;;;;;;;6.24;100.00;101753.78;5036984;28;20052;-66
2023/04/30 03:22:00;;;;;;;35.38;23.77;;;;;;;6.28;100.00;101746.22;5035184;28;20109;-67
2023/04/30 03:24:26;;;;;;;34.67;21.98;;;;;;;6.39;100.00;101743.03;5032301;28;20151;-67
2023/04/30 03:26:51;;;;;;;33.05;22.27;;;;;;;6.42;100.00;101746.53;5037340;28;20035;-67
2023/04/30 03:29:16;;;;;;;40.42;24.25;;;;;;;6.41;100.00;101742.22;5034693;28;20049;-67
2023/04/30 03:31:42;;;;;;;49.95;26.77;;;;;;;6.43;100.00;101739.72;5036549;28;20049;-67
2023/04/30 03:34:08;;;;;;;52.40;27.20;;;;;;;6.48;100.00;101744.13;5036414;28;20132;-67
2023/04/30 03:36:33;;;;;;;54.67;29.27;;;;;;;6.55;100.00;101735.75;5037893;28;20129;-67
2023/04/30 03:38:59;;;;;;;70.13;32.65;;;;;;;6.64;100.00;101738.53;5033198;28;20048;-67
2023/04/30 03:41:24;;;;;;;67.80;33.97;;;;;;;6.75;100.00;101743.88;5038572;28;20515;-67
2023/04/30 03:43:50;;;;;;;78.60;35.10;;;;;;;6.82;100.00;101733.78;5036971;28;20059;-67
2023/04/30 03:46:15;;;;;;;92.28;38.00;;;;;;;6.95;100.00;101734.03;5038161;28;20127;-67
2023/04/30 03:48:40;;;;;;;145.65;45.63;;;;;;;7.06;100.00;101740.31;5035254;28;20418;-67
2023/04/30 03:51:06;;;;;;;174.60;50.60;;;;;;;7.17;100.00;101749.13;5033646;28;20112;-67
2023/04/30 03:53:31;;;;;;;157.70;47.63;;;;;;;7.26;100.00;101744.19;5037118;28;20902;-68
2023/04/30 03:55:57;;;;;;;265.38;59.88;;;;;;;7.38;100.00;101736.72;5037716;28;20126;-67
2023/04/30 03:58:23;;;;;;;301.92;65.07;;;;;;;7.47;100.00;101741.19;5036891;28;20040;-67
2023/04/30 04:00:48;;;;;;;340.85;63.47;;;;;;;7.51;100.00;101742.94;5036130;28;20045;-67
2023/04/30 04:03:15;;;;;;;439.70;70.38;;;;;;;7.50;100.00;101738.66;5034447;28;20177;-67
2023/04/30 04:05:40;;;;;;;282.88;49.60;;;;;;;7.32;100.00;101741.75;5034640;28;20778;-68
2023/04/30 04:08:06;;;;;;;113.35;34.00;;;;;;;7.13;100.00;101750.72;5033114;28;20139;-67
2023/04/30 04:10:33;;;;;;;105.32;32.58;;;;;;;7.00;100.00;101750.44;5032742;28;20052;-67
2023/04/30 04:12:58;;;;;;;118.50;32.42;;;;;;;6.92;100.00;101745.13;5034050;28;20509;-67
2023/04/30 04:15:24;;;;;;;139.63;35.60;;;;;;;6.90;100.00;101751.94;5040265;28;20041;-67
2023/04/30 04:17:50;;;;;;;161.35;36.83;;;;;;;6.88;100.00;101745.91;5035652;28;20061;-68
2023/04/30 04:20:16;;;;;;;201.88;45.03;;;;;;;6.94;100.00;101746.06;5031680;28;20045;-67
2023/04/30 04:22:42;;;;;;;219.35;44.38;;;;;;;6.97;100.00;101747.81;5033250;28;20521;-67
2023/04/30 04:25:08;;;;;;;69.40;30.23;;;;;;;7.02;100.00;101752.22;5033699;28;20045;-67
2023/04/30 04:27:33;;;;;;;111.80;33.95;;;;;;;7.05;100.00;101749.72;5034789;28;20037;-66
2023/04/30 04:29:59;;;;;;;182.38;44.63;;;;;;;7.07;100.00;101757.44;5032986;28;20077;-67
2023/04/30 04:32:24;;;;;;;140.98;36.17;;;;;;;7.06;100.00;101751.44;5033909;28;20094;-66
2023/04/30 04:34:50;;;;;;;68.57;29.88;;;;;;;7.08;100.00;101759.19;5034602;28;20142;-67
2023/04/30 04:37:16;;;;;;;157.68;41.65;;;;;;;7.04;100.00;101755.69;5027636;28;20037;-67
2023/04/30 04:39:41;;;;;;;85.85;33.90;;;;;;;7.05;100.00;101756.56;5031481;28;20040;-67
2023/04/30 04:42:07;;;;;;;97.63;35.50;;;;;;;7.07;100.00;101760.88;5033278;28;20375;-67
2023/04/30 04:44:32;;;;;;;119.78;37.70;;;;;;;7.10;100.00;101758.38;5034378;28;20055;-67
2023/04/30 04:46:58;;;;;;;111.43;36.33;;;;;;;7.14;100.00;101765.34;5032991;28;20599;-67
2023/04/30 04:49:23;;;;;;;90.57;35.92;;;;;;;7.20;100.00;101764.63;5033883;28;20120;-67
2023/04/30 04:51:48;;;;;;;63.17;31.40;;;;;;;7.27;100.00;101762.19;5032047;28;20047;-67
2023/04/30 04:54:14;;;;;;;69.35;34.40;;;;;;;7.31;100.00;101758.88;5033631;28;20099;-66
2023/04/30 04:56:39;;;;;;;57.40;31.45;;;;;;;7.25;100.00;101763.88;5032921;28;20670;-67
2023/04/30 04:59:04;;;;;;;61.63;32.60;;;;;;;7.24;100.00;101769.00;5033576;28;20084;-67
2023/04/30 05:01:30;;;;;;;53.35;32.13;;;;;;;7.18;100.00;101771.44;5028909;28;20048;-67
2023/04/30 05:03:55;;;;;;;52.58;31.73;;;;;;;7.15;100.00;101767.09;5031403;28;20513;-68
2023/04/30 05:06:21;;;;;;;53.47;30.05;;;;;;;7.10;100.00;101771.22;5036148;28;20041;-67
2023/04/30 05:08:46;;;;;;;47.95;30.70;;;;;;;7.09;100.00;101774.63;5031328;28;20052;-68
2023/04/30 05:11:11;;;;;;;50.70;31.30;;;;;;;7.07;100.00;101773.75;5038913;28;20044;-67
2023/04/30 05:13:37;;;;;;;52.25;31.85;;;;;;;7.11;100.00;101777.25;5037284;28;20063;-67
2023/04/30 05:16:02;;;;;;;49.40;30.27;;;;;;;7.11;100.00;101774.69;5036246;28;20045;-67
2023/04/30 05:18:28;;;;;;;52.47;30.75;;;;;;;7.18;100.00;101780.00;5033591;28;20663;-67
2023/04/30 05:20:53;;;;;;;51.13;29.50;;;;;;;7.23;100.00;101791.28;5028295;28;20044;-67
2023/04/30 05:23:19;;;;;;;49.42;28.90;;;;;;;7.26;100.00;101787.91;5035658;28;20136;-67
2023/04/30 05:25:44;;;;;;;51.58;27.80;;;;;;;7.26;100.00;101798.19;5036508;28;20067;-67
2023/04/30 05:28:10;;;;;;;50.05;29.08;;;;;;;7.19;100.00;101794.59;5032324;28;20041;-67
2023/04/30 05:30:35;;;;;;;45.75;29.38;;;;;;;7.17;100.00;101798.88;5033396;28;20107;-67
2023/04/30 05:33:01;;;;;;;49.20;29.25;;;;;;;7.17;100.00;101801.44;5038626;28;20039;-67
2023/04/30 05:35:26;;;;;;;50.15;30.13;;;;;;;7.20;100.00;101800.63;5030496;28;20061;-67
2023/04/30 05:37:52;;;;;;;50.70;29.05;;;;;;;7.27;100.00;101805.91;5042861;28;20047;-67
2023/04/30 05:40:17;;;;;;;46.22;30.20;;;;;;;7.32;100.00;101812.06;5035941;28;20383;-66
2023/04/30 05:42:42;;;;;;;50.92;29.55;;;;;;;7.27;100.00;101817.91;5022870;28;20041;-67
2023/04/30 05:45:13;;;;;;;48.85;29.08;;;;;;;7.31;100.00;101818.03;5030160;28;20075;-67
2023/04/30 05:47:39;;;;;;;45.85;28.42;;;;;;;7.38;100.00;101822.47;5034819;28;20065;-67
2023/04/30 05:50:05;;;;;;;42.83;28.13;;;;;;;7.42;100.00;101813.09;5036197;28;20065;-66
2023/04/30 05:52:31;;;;;;;44.38;27.50;;;;;;;7.53;100.00;101818.47;5038312;28;20067;-67
2023/04/30 05:54:57;;;;;;;43.15;27.33;;;;;;;7.64;100.00;101816.97;5045210;28;20091;-66
2023/04/30 05:57:22;;;;;;;44.40;27.35;;;;;;;7.71;100.00;101821.44;5038295;28;21106;-66
2023/04/30 05:59:48;;;;;;;45.80;28.58;;;;;;;7.81;100.00;101813.91;5033809;28;20082;-67
2023/04/30 06:02:14;;;;;;;45.10;28.45;;;;;;;7.94;100.00;101815.00;5034456;28;20116;-67
2023/04/30 06:04:39;;;;;;;48.35;29.77;;;;;;;8.05;100.00;101812.63;5034483;28;20550;-67
2023/04/30 06:07:04;;;;;;;43.70;26.50;;;;;;;8.16;100.00;101813.72;5031993;28;20068;-66
2023/04/30 06:09:30;;;;;;;43.78;29.60;;;;;;;8.15;98.50;101811.97;5033118;28;20071;-66
2023/04/30 06:11:55;;;;;;;46.85;29.90;;;;;;;8.24;98.42;101801.84;5033412;28;20152;-67
2023/04/30 06:14:21;;;;;;;44.20;29.23;;;;;;;8.31;98.07;101801.06;5032543;28;20033;-66
2023/04/30 06:16:47;;;;;;;42.58;28.92;;;;;;;8.39;97.91;101796.94;5036648;28;20044;-67
2023/04/30 06:19:12;;;;;;;42.90;26.10;;;;;;;8.46;97.20;101803.91;5036051;28;20037;-65
2023/04/30 06:21:38;;;;;;;39.72;28.08;;;;;;;8.53;96.07;101798.91;5033511;28;20126;-66
2023/04/30 06:24:04;;;;;;;41.28;27.55;;;;;;;8.63;96.00;101796.47;5034860;28;20064;-66
2023/04/30 06:26:29;;;;;;;38.95;25.58;;;;;;;8.66;94.11;101797.41;5034858;28;20703;-66
2023/04/30 06:28:55;;;;;;;42.53;27.70;;;;;;;8.77;94.81;101790.69;5033866;28;20048;-67
2023/04/30 06:31:21;;;;;;;40.25;27.30;;;;;;;8.82;94.43;101791.63;5018163;28;20068;-66
2023/04/30 06:33:46;;;;;;;41.45;26.50;;;;;;;8.85;92.45;101789.09;5035046;28;20044;-66
2023/04/30 06:36:12;;;;;;;37.47;26.77;;;;;;;8.92;93.05;101800.38;5032021;28;20067;-66
2023/04/30 06:38:37;;;;;;;38.63;26.42;;;;;;;9.00;92.89;101799.63;5035266;28;20094;-66
2023/04/30 06:41:02;;;;;;;36.63;24.83;;;;;;;9.06;92.76;101796.28;5038350;28;20037;-65
2023/04/30 06:43:28;;;;;;;39.00;25.95;;;;;;;9.09;92.50;101793.72;5041079;28;20095;-65
2023/04/30 06:45:53;;;;;;;37.05;25.80;;;;;;;9.18;91.90;101800.72;5041029;28;20037;-65
2023/04/30 06:48:19;;;;;;;38.92;25.20;;;;;;;9.16;91.86;101802.44;5040529;28;20127;-66
2023/04/30 06:50:44;;;;;;;36.58;25.77;;;;;;;9.24;91.55;101804.25;5039982;28;20023;-66
2023/04/30 06:53:13;;;;;;;37.78;26.20;;;;;;;9.31;91.93;101806.09;5053754;28;20032;-66
2023/04/30 06:55:40;;;;;;;39.08;26.98;;;;;;;9.37;91.49;101797.56;5041812;28;20036;-66
2023/04/30 06:58:06;;;;;;;35.85;25.23;;;;;;;9.48;91.40;101801.13;5033057;28;20095;-66
2023/04/30 07:00:32;;;;;;;37.72;25.55;;;;;;;9.55;91.92;101797.78;5035268;28;20048;-66
2023/04/30 07:03:02;;;;;;;33.72;23.77;;;;;;;9.67;91.87;101798.81;5032422;28;20024;-66
2023/04/30 07:05:31;;;;;;;34.75;24.83;;;;;;;9.75;90.46;101791.19;5055206;28;20047;-65
2023/04/30 07:07:57;;;;;;;38.80;26.23;;;;;;;9.86;91.63;101788.69;5035036;28;20048;-66
2023/04/30 07:10:23;;;;;;;35.85;25.42;;;;;;;9.94;91.14;101787.09;5032372;28;20029;-66
2023/04/30 07:12:48;;;;;;;35.40;24.35;;;;;;;10.03;89.48;101779.44;5028537;28;20049;-66
2023/04/30 07:15:14;;;;;;;36.13;25.38;;;;;;;10.13;89.92;101783.81;5031364;28;20408;-66
2023/04/30 07:17:40;;;;;;;33.88;23.95;;;;;;;10.05;88.54;101778.59;5041302;28;20033;-66
2023/04/30 07:20:07;;;;;;;39.13;24.90;;;;;;;10.17;88.58;101780.44;5038894;28;20045;-66
2023/04/30 07:22:33;;;;;;;32.40;22.73;;;;;;;10.27;88.45;101787.41;5036639;28;20037;-66
2023/04/30 07:24:59;;;;;;;32.63;24.27;;;;;;;10.35;88.51;101782.31;5018170;28;20719;-66
2023/04/30 07:27:25;;;;;;;32.80;22.42;;;;;;;10.43;88.28;101789.28;5039841;28;20142;-66
2023/04/30 07:29:50;;;;;;;33.05;22.90;;;;;;;10.60;87.55;101790.28;5035478;28;21946;-66
2023/04/30 07:32:15;;;;;;;33.03;22.33;;;;;;;10.68;86.50;101780.84;5035873;28;20083;-66
2023/04/30 07:34:41;;;;;;;30.90;21.45;;;;;;;10.80;86.34;101785.25;5038158;28;20525;-66
2023/04/30 07:37:10;;;;;;;30.00;21.75;;;;;;;10.89;85.45;101787.88;5035448;28;20075;-67
2023/04/30 07:39:36;;;;;;;30.55;21.73;;;;;;;10.91;85.16;101781.03;5035763;28;20049;-66
2023/04/30 07:42:02;;;;;;;32.45;21.55;;;;;;;10.94;84.48;101783.63;5035550;28;20699;-67
2023/04/30 07:44:29;;;;;;;28.13;20.48;;;;;;;10.96;84.60;101779.31;5037723;28;20031;-66
2023/04/30 07:46:54;;;;;;;30.15;21.10;;;;;;;11.09;84.76;101775.97;5037571;28;20072;-66
2023/04/30 07:49:20;;;;;;;28.88;20.80;;;;;;;11.27;84.77;101773.47;5036672;28;20168;-64
2023/04/30 07:51:45;;;;;;;28.30;20.15;;;;;;;11.39;84.80;101764.91;5032204;28;20591;-64
2023/04/30 07:54:11;;;;;;;25.58;19.52;;;;;;;11.56;83.79;101772.75;5035784;28;20048;-65
2023/04/30 07:56:36;;;;;;;27.42;20.13;;;;;;;11.67;81.65;101758.97;5003743;28;20083;-65
2023/04/30 07:59:02;;;;;;;29.95;20.20;;;;;;;11.82;80.70;101756.44;5036797;28;20475;-63
2023/04/30 08:01:27;;;;;;;23.80;18.02;;;;;;;11.94;81.03;101765.06;5037941;28;20071;-64
2023/04/30 08:03:53;;;;;;;30.60;19.35;;;;;;;12.00;80.08;101759.91;5034688;28;20049;-65
2023/04/30 08:06:18;;;;;;;23.52;18.02;;;;;;;12.11;80.09;101759.06;5037096;28;20051;-64
2023/04/30 08:08:43;;;;;;;27.65;17.83;;;;;;;12.20;79.86;101759.06;5029799;28;20040;-65
2023/04/30 08:11:10;;;;;;;28.40;18.55;;;;;;;12.27;78.34;101749.56;5016856;28;20039;-64
2023/04/30 08:13:35;;;;;;;22.33;16.65;;;;;;;12.38;76.43;101745.25;5036567;28;20681;-64
2023/04/30 08:16:01;;;;;;;22.17;15.98;;;;;;;12.48;75.33;101736.59;5037689;28;20044;-64
2023/04/30 08:18:26;;;;;;;27.13;16.63;;;;;;;12.60;75.57;101748.69;5038285;28;20044;-64
2023/04/30 08:20:51;;;;;;;21.23;16.23;;;;;;;12.72;75.29;101746.09;5038484;28;20734;-64
2023/04/30 08:23:17;;;;;;;21.20;14.38;;;;;;;12.84;74.08;101733.97;5033517;28;20211;-64
2023/04/30 08:25:42;;;;;;;23.10;15.77;;;;;;;12.90;72.42;101720.13;5037729;28;20045;-64
2023/04/30 08:28:08;;;;;;;19.90;14.40;;;;;;;12.93;70.14;101686.38;5037605;28;20110;-64
2023/04/30 08:30:33;;;;;;;20.30;14.10;;;;;;;13.04;70.72;101704.53;5038011;28;20052;-64
2023/04/30 08:32:58;;;;;;;19.25;14.35;;;;;;;13.23;70.88;101709.66;5039267;28;20048;-64
2023/04/30 08:35:24;;;;;;;21.98;14.38;;;;;;;13.38;71.06;101711.31;5035147;28;20099;-64
2023/04/30 08:37:50;;;;;;;19.83;13.57;;;;;;;13.50;71.38;101709.50;5034598;28;20037;-64
2023/04/30 08:40:15;;;;;;;17.27;12.70;;;;;;;13.66;68.39;101660.94;5045944;28;20072;-64
2023/04/30 08:42:48;;;;;;;15.82;11.35;;;;;;;13.85;67.63;101653.88;5045485;28;20552;-64
2023/04/30 08:45:15;;;;;;;17.40;12.70;;;;;;;13.83;67.78;101658.22;5036686;28;20313;-63
2023/04/30 08:47:40;;;;;;;18.67;12.93;;;;;;;13.82;66.78;101659.09;5044797;28;20033;-64
2023/04/30 08:50:06;;;;;;;18.15;13.10;;;;;;;13.96;67.90;101665.91;5043235;28;20028;-64
2023/04/30 08:52:34;;;;;;;17.52;13.02;;;;;;;14.02;68.11;101680.59;5040639;28;20040;-64
2023/04/30 08:55:00;;;;;;;17.38;12.30;;;;;;;14.16;67.98;101681.31;5041921;28;20656;-64
2023/04/30 08:57:26;;;;;;;17.48;11.73;;;;;;;14.31;68.58;101683.78;5041450;28;20040;-64
2023/04/30 08:59:53;;;;;;;15.75;12.32;;;;;;;14.48;67.75;101668.09;5040156;28;20037;-64
2023/04/30 09:02:18;;;;;;;17.98;13.85;;;;;;;14.56;66.90;101651.50;5042809;28;20020;-64
2023/04/30 09:04:45;;;;;;;17.13;12.05;;;;;;;14.65;67.50;101659.22;5040810;28;20045;-64
2023/04/30 09:07:13;;;;;;;16.75;12.68;;;;;;;14.69;67.35;101665.25;5053173;28;20044;-66
2023/04/30 09:09:39;;;;;;;19.17;12.25;;;;;;;14.59;65.31;101629.81;5057863;28;20067;-66
2023/04/30 09:12:14;;;;;;;17.85;12.40;;;;;;;14.67;65.67;101635.78;5050645;28;20037;-66
2023/04/30 09:14:40;;;;;;;12.68;9.85;;;;;;;14.69;63.67;101599.34;5043389;28;20159;-66
2023/04/30 09:17:07;;;;;;;15.50;10.80;;;;;;;14.79;64.07;101606.13;5042071;28;20075;-66
2023/04/30 09:19:33;;;;;;;12.73;10.15;;;;;;;14.92;63.63;101600.78;5062504;28;20044;-66
2023/04/30 09:21:58;;;;;;;19.50;12.82;;;;;;;15.03;64.27;101617.09;5062192;28;20036;-65
2023/04/30 09:24:24;;;;;;;15.63;11.48;;;;;;;14.97;63.24;101590.28;5051397;28;20125;-66
2023/04/30 09:26:50;;;;;;;15.82;10.75;;;;;;;15.07;62.05;101556.31;5034401;28;20048;-66
2023/04/30 09:29:16;;;;;;;14.20;9.15;;;;;;;15.12;60.12;101524.97;5029692;28;20131;-66
2023/04/30 09:31:45;;;;;;;16.60;10.55;;;;;;;15.19;61.22;101550.06;5027958;28;20128;-66
2023/04/30 09:34:10;;;;;;;12.93;9.38;;;;;;;15.24;59.93;101506.56;5041110;28;20029;-66
2023/04/30 09:36:36;;;;;;;11.93;8.85;;;;;;;15.38;60.13;101522.84;5041498;28;20037;-66
2023/04/30 09:39:14;;;;;;;13.90;9.68;;;;;;;15.58;61.23;101540.78;5014266;28;20060;-66
2023/04/30 09:41:41;;;;;;;12.13;8.23;;;;;;;15.61;57.67;101479.00;5033700;28;20656;-67
2023/04/30 09:44:06;;;;;;;11.38;8.05;;;;;;;15.67;57.47;101459.84;5039031;28;20055;-65
2023/04/30 09:46:34;;;;;;;9.43;7.30;;;;;;;15.78;56.49;101434.44;5042083;28;20041;-66
2023/04/30 09:49:02;;;;;;;11.52;8.55;;;;;;;15.87;56.04;101449.03;5041641;28;20037;-65
2023/04/30 09:51:28;;;;;;;7.85;6.75;;;;;;;15.99;56.17;101454.03;5039366;28;20144;-65
2023/04/30 09:53:55;;;;;;;12.77;8.60;;;;;;;16.12;56.22;101458.09;5031089;28;20033;-65
2023/04/30 09:56:22;;;;;;;11.77;8.05;;;;;;;16.25;56.76;101464.78;5038295;28;20033;-65
2023/04/30 09:58:52;;;;;;;9.20;7.40;;;;;;;16.27;55.99;101442.13;5030394;28;20041;-65
2023/04/30 10:01:20;;;;;;;12.05;8.13;;;;;;;16.33;56.24;101447.22;5035141;28;20037;-65
2023/04/30 10:03:47;;;;;;;9.38;6.70;;;;;;;16.46;55.70;101434.78;5046700;28;20082;-65
2023/04/30 10:06:14;;;;;;;7.53;5.80;;;;;;;16.62;54.00;101408.28;5061514;28;20413;-65
2023/04/30 10:08:42;;;;;;;10.63;6.28;;;;;;;16.56;52.47;101376.28;5054818;28;20020;-66
2023/04/30 10:11:11;;;;;;;7.38;5.45;;;;;;;16.74;53.54;101408.00;5060790;28;20024;-65
2023/04/30 10:13:44;;;;;;;10.73;5.78;;;;;;;16.98;53.06;101403.16;5062155;28;20097;-65
2023/04/30 10:16:24;;;;;;;7.53;6.10;;;;;;;17.01;51.41;101374.34;5059741;28;20028;-65
2023/04/30 10:18:52;;;;;;;8.63;6.35;;;;;;;17.22;52.08;101390.31;5060606;28;20036;-65
2023/04/30 10:21:21;;;;;;;8.98;6.35;;;;;;;17.23;51.21;101372.88;5060462;28;20056;-65
2023/04/30 10:23:47;;;;;;;6.93;5.80;;;;;;;17.35;50.34;101346.44;5056880;28;20048;-65
2023/04/30 10:26:15;;;;;;;9.50;5.68;;;;;;;17.53;51.47;101372.06;5060632;28;20028;-65
2023/04/30 10:28:41;;;;;;;9.38;6.15;;;;;;;17.68;51.08;101357.72;5058458;28;20066;-65
2023/04/30 10:31:11;;;;;;;7.93;5.05;;;;;;;17.61;50.00;101343.97;5059339;28;20078;-65
2023/04/30 10:33:55;;;;;;;6.47;5.15;;;;;;;17.55;48.38;101322.34;5059985;28;20591;-65
2023/04/30 10:36:32;;;;;;;7.28;4.55;;;;;;;17.51;47.88;101321.63;5059300;28;20044;-65
2023/04/30 10:38:59;;;;;;;6.45;3.95;;;;;;;17.82;48.09;101316.34;5056106;28;20054;-65
2023/04/30 10:41:26;;;;;;;4.70;4.10;;;;;;;17.70;47.06;101294.03;5061096;28;20029;-65
2023/04/30 10:43:57;;;;;;;4.38;3.63;;;;;;;17.96;45.89;101275.81;5029874;28;20034;-65
2023/04/30 10:46:23;;;;;;;4.90;3.30;;;;;;;18.12;45.42;101268.38;5040017;28;20517;-65
2023/04/30 10:48:49;;;;;;;4.15;3.03;;;;;;;18.11;47.02;101300.66;5040149;28;20036;-65
2023/04/30 10:51:15;;;;;;;4.55;2.53;;;;;;;18.30;47.60;101325.38;5038781;28;20152;-64
2023/04/30 10:53:41;;;;;;;2.35;2.03;;;;;;;18.74;46.53;101294.25;5039058;28;20028;-65
2023/04/30 10:56:10;;;;;;;3.55;2.38;;;;;;;18.61;43.24;101236.19;5036020;28;20478;-64
2023/04/30 10:58:37;;;;;;;3.50;1.92;;;;;;;18.57;43.46;101225.91;5037104;28;20033;-65
2023/04/30 11:01:10;;;;;;;2.15;1.63;;;;;;;19.02;43.39;101233.06;5037249;28;20554;-65
2023/04/30 11:03:36;;;;;;;2.10;1.27;;;;;;;19.50;43.31;101242.66;5039185;28;20616;-64
2023/04/30 11:06:10;;;;;;;1.27;0.93;;;;;;;19.77;40.41;101183.06;5038526;28;20043;-65
2023/04/30 11:08:37;;;;;;;2.28;1.52;;;;;;;19.42;40.77;101182.63;5033980;28;20514;-65
2023/04/30 11:11:04;;;;;;;3.53;2.03;;;;;;;19.51;40.97;101192.78;5034916;28;20382;-65